ADDS METAR Data INFO
IDs: Format: Raw Decoded Include TAF

Data at: 2231 UTC 11 Dec 2017

KSRB 112215Z AUTO 22006KT 10SM CLR 12/M01 A2990 RMK A01
KSRB 112155Z AUTO 20008KT 10SM CLR 12/M01 A2990 RMK A01
KSRB 112135Z AUTO 22008KT 10SM CLR 13/M01 A2991 RMK A01
KSRB 112115Z AUTO 21009G16KT 10SM CLR 14/M01 A2991 RMK A01
KSRB 112055Z AUTO 21011KT 10SM CLR 14/M01 A2991 RMK A01
KSRB 112035Z AUTO 22012G18KT 10SM CLR 14/M01 A2992 RMK A01
KSRB 112015Z AUTO 22014KT 10SM CLR 14/M01 A2993 RMK A01
KSRB 111955Z AUTO 23009G14KT 10SM CLR 14/M01 A2995 RMK A01
KSRB 111935Z AUTO 22009G15KT 200V260 10SM CLR 14/M01 A2996 RMK A01
KSRB 111915Z AUTO 21010G17KT 10SM CLR 13/M01 A2998 RMK A01
KSRB 111855Z AUTO 22008G14KT 10SM CLR 13/M01 A3000 RMK A01
KSRB 111835Z AUTO 22010KT 10SM CLR 13/M01 A3000 RMK A01
KSRB 111815Z AUTO 19009KT 10SM CLR 12/M01 A3002 RMK A01
KSRB 111755Z AUTO 24006KT 10SM CLR 11/M01 A3004 RMK A01
KSRB 111735Z AUTO VRB05G11KT 10SM CLR 11/M01 A3005 RMK A01
KSRB 111715Z AUTO 21007KT 160V240 10SM CLR 10/M01 A3006 RMK A01
KSRB 111655Z AUTO 20008G13KT 10SM CLR 09/M01 A3007 RMK A01
KSRB 111635Z AUTO 19010KT 10SM CLR 09/M01 A3009 RMK A01
KSRB 111615Z AUTO 21011KT 10SM CLR 08/M01 A3011 RMK A01
KSRB 111555Z AUTO 20009KT 10SM CLR 08/M01 A3012 RMK A01
KSRB 111535Z AUTO 20010KT 10SM CLR 07/M01 A3012 RMK A01
KSRB 111515Z AUTO 20008KT 10SM CLR 06/M01 A3011 RMK A01
KSRB 111455Z AUTO 18007KT 10SM CLR 05/M01 A3012 RMK A01
KSRB 111435Z AUTO 19005KT 10SM CLR 04/M01 A3012 RMK A01
KSRB 111415Z AUTO 00000KT 10SM CLR 02/M02 A3013 RMK A01
KSRB 111355Z AUTO 00000KT 10SM CLR M00/M02 A3013 RMK A01
KSRB 111335Z AUTO 00000KT 10SM CLR M02/M03 A3013 RMK A01
KSRB 111315Z AUTO 00000KT 10SM CLR M04/M05 A3013 RMK A01
KSRB 111255Z AUTO 00000KT 10SM CLR M05/M06 A3013 RMK A01
KSRB 111235Z AUTO 00000KT 10SM CLR M05/M06 A3013 RMK A01
KSRB 111215Z AUTO 00000KT 10SM CLR M05/M06 A3012 RMK A01
KSRB 111155Z AUTO 00000KT 10SM CLR M05/M06 A3013 RMK A01
KSRB 111135Z AUTO 00000KT 10SM CLR M05/M06 A3013 RMK A01
KSRB 111115Z AUTO 00000KT 10SM CLR M05/M06 A3014 RMK A01
KSRB 111055Z AUTO 00000KT 10SM FEW027 M05/M06 A3014 RMK A01
KSRB 111035Z AUTO 00000KT 10SM CLR M05/M06 A3014 RMK A01
KSRB 111015Z AUTO 00000KT 10SM CLR M04/M06 A3014 RMK A01
KSRB 110955Z AUTO 00000KT 10SM CLR M04/M06 A3014 RMK A01
KSRB 110935Z AUTO 00000KT 10SM CLR M04/M06 A3015 RMK A01
KSRB 110915Z AUTO 00000KT 10SM CLR M02/M05 A3015 RMK A01
KSRB 110855Z AUTO 17003KT 10SM CLR M03/M05 A3015 RMK A01
KSRB 110835Z AUTO 16004KT 10SM CLR M02/M05 A3015 RMK A01
KSRB 110815Z AUTO 17003KT 10SM CLR M04/M06 A3016 RMK A01
KSRB 110755Z AUTO 00000KT 10SM CLR M04/M06 A3015 RMK A01
KSRB 110735Z AUTO 00000KT 10SM CLR M04/M06 A3016 RMK A01
KSRB 110715Z AUTO 00000KT 10SM CLR M04/M05 A3015 RMK A01
KSRB 110655Z AUTO 17003KT 10SM CLR M04/M06 A3015 RMK A01
KSRB 110635Z AUTO 00000KT 10SM CLR M04/M06 A3015 RMK A01
KSRB 110615Z AUTO 00000KT 10SM CLR M03/M05 A3016 RMK A01
KSRB 110555Z AUTO 00000KT 10SM CLR M03/M05 A3016 RMK A01
KSRB 110535Z AUTO 18003KT 10SM CLR M01/M05 A3017 RMK A01
KSRB 110515Z AUTO 00000KT 10SM CLR M02/M05 A3017 RMK A01
KSRB 110455Z AUTO 00000KT 10SM CLR M03/M05 A3018 RMK A01
KSRB 110435Z AUTO 00000KT 10SM CLR M03/M05 A3018 RMK A01
KSRB 110415Z AUTO 21004KT 10SM CLR M03/M05 A3018 RMK A01
KSRB 110355Z AUTO 20003KT 10SM CLR M02/M05 A3018 RMK A01
KSRB 110335Z AUTO 19005KT 10SM CLR M00/M05 A3018 RMK A01
KSRB 110315Z AUTO 19004KT 10SM CLR M01/M05 A3017 RMK A01
KSRB 110255Z AUTO 18005KT 10SM CLR M01/M05 A3017 RMK A01
KSRB 110235Z AUTO 18003KT 10SM CLR M02/M05 A3017 RMK A01
KSRB 110215Z AUTO 18003KT 10SM CLR M01/M05 A3017 RMK A01
KSRB 110155Z AUTO 00000KT 10SM CLR M01/M05 A3017 RMK A01
KSRB 110135Z AUTO 19004KT 10SM CLR M00/M05 A3016 RMK A01
KSRB 110115Z AUTO 00000KT 10SM CLR M02/M05 A3016 RMK A01
KSRB 110055Z AUTO 00000KT 10SM CLR M01/M05 A3015 RMK A01
KSRB 110035Z AUTO 20005KT 10SM CLR 01/M05 A3013 RMK A01
KSRB 110015Z AUTO 20005KT 10SM CLR 02/M05 A3012 RMK A01
KSRB 102355Z AUTO 19007KT 10SM CLR 03/M05 A3012 RMK A01
KSRB 102335Z AUTO 19007KT 10SM CLR 03/M05 A3012 RMK A01
KSRB 102315Z AUTO 21007G12KT 10SM FEW110 04/M05 A3012 RMK A01
KSRB 102255Z AUTO 21007G14KT 10SM SCT110 04/M05 A3011 RMK A01
KSRB 102235Z AUTO 19008G15KT 10SM CLR 05/M05 A3009 RMK A01
KSRB 102215Z AUTO 19011G16KT 10SM CLR 05/M06 A3011 RMK A01
KSRB 102155Z AUTO 19009G14KT 10SM CLR 05/M06 A3012 RMK A01
KSRB 102135Z AUTO 21013KT 10SM CLR 06/M06 A3013 RMK A01
KSRB 102115Z AUTO 21011G18KT 10SM CLR 06/M07 A3013 RMK A01
KSRB 102055Z AUTO 22012KT 10SM CLR 06/M07 A3014 RMK A01
KSRB 102035Z AUTO 20011KT 10SM CLR 06/M07 A3014 RMK A01
KSRB 102015Z AUTO 21009KT 180V240 10SM CLR 06/M07 A3014 RMK A01
KSRB 101955Z AUTO 21010G16KT 10SM CLR 06/M07 A3015 RMK A01
KSRB 101935Z AUTO 20012KT 10SM CLR 06/M06 A3015 RMK A01
KSRB 101915Z AUTO 21009KT 10SM CLR 06/M06 A3016 RMK A01
KSRB 101855Z AUTO 21011KT 10SM CLR 05/M05 A3017 RMK A01
KSRB 101835Z AUTO 22010KT 10SM CLR 05/M06 A3018 RMK A01
KSRB 101815Z AUTO 23010G15KT 10SM CLR 04/M06 A3018 RMK A01
KSRB 101755Z AUTO 25009KT 10SM CLR 04/M06 A3019 RMK A01
KSRB 101735Z AUTO 24008G15KT 10SM CLR 03/M06 A3020 RMK A01
KSRB 101715Z AUTO 24010G15KT 10SM CLR 03/M06 A3022 RMK A01
KSRB 101655Z AUTO 22009G15KT 10SM CLR 03/M06 A3023 RMK A01
KSRB 101635Z AUTO 22010KT 10SM CLR 02/M06 A3023 RMK A01
KSRB 101615Z AUTO 19012KT 10SM CLR 02/M06 A3024 RMK A01
KSRB 101555Z AUTO 19007KT 160V220 10SM CLR 01/M06 A3025 RMK A01
KSRB 101535Z AUTO 22008G13KT 10SM CLR 00/M07 A3026 RMK A01
KSRB 101515Z AUTO 21007KT 10SM CLR M00/M07 A3026 RMK A01
KSRB 101455Z AUTO 20005KT 10SM CLR M01/M06 A3026 RMK A01
KSRB 101435Z AUTO 18005KT 10SM CLR M02/M05 A3025 RMK A01
KSRB 101415Z AUTO 20004KT 10SM CLR M03/M06 A3026 RMK A01
KSRB 101355Z AUTO 20005KT 10SM CLR M04/M06 A3025 RMK A01
KSRB 101335Z AUTO 20004KT 10SM CLR M05/M06 A3025 RMK A01
KSRB 101315Z AUTO 00000KT 10SM CLR M07/M08 A3024 RMK A01
KSRB 101255Z AUTO 00000KT 10SM CLR M08/M09 A3024 RMK A01
KSRB 101235Z AUTO 00000KT 10SM CLR M08/M09 A3023 RMK A01
KSRB 101215Z AUTO 00000KT 10SM FEW026 M08/M09 A3022 RMK A01
KSRB 101155Z AUTO 00000KT 10SM FEW024 FEW030 M08/M09 A3022 RMK A01
KSRB 101135Z AUTO 00000KT 10SM CLR M08/M09 A3022 RMK A01
KSRB 101115Z AUTO 00000KT 10SM CLR M08/M09 A3021 RMK A01
KSRB 101055Z AUTO 00000KT 10SM CLR M08/M09 A3021 RMK A01
KSRB 101035Z AUTO 00000KT 10SM FEW028 M08/M09 A3021 RMK A01